Terminal Aerodrome Forecast
Issued by NWS Sterling, VA

Current Version | Previous Version | Text Only | Print | Product List | Glossary Off
Versions: 1 2 3 4 5 6 7 8 9 10 11 12 13

000
FTUS41 KLWX 180525
TAFMRB
TAF
KMRB 180525Z 1806/1906 00000KT P6SM SCT250
     FM181600 23006KT P6SM FEW250
     FM190100 25006KT P6SM OVC100=

USA.gov is the U.S. government's official web portal to all federal, state and local government web resources and services.